sensor_id;sensor_type;location;lat;lon;timestamp;P1;durP1;ratioP1;P2;durP2;ratioP2
67751;SDS011;54551;51.068;5.826;2022-12-18T00:01:02;93.37;;;46.27;;
67751;SDS011;54551;51.068;5.826;2022-12-18T00:03:33;85.17;;;43.83;;
67751;SDS011;54551;51.068;5.826;2022-12-18T00:05:59;67.43;;;37.23;;
67751;SDS011;54551;51.068;5.826;2022-12-18T00:08:25;64.17;;;36.37;;
67751;SDS011;54551;51.068;5.826;2022-12-18T00:10:51;58.97;;;32.67;;
67751;SDS011;54551;51.068;5.826;2022-12-18T00:13:17;49.63;;;30.57;;
67751;SDS011;54551;51.068;5.826;2022-12-18T00:15:43;55.60;;;31.93;;
67751;SDS011;54551;51.068;5.826;2022-12-18T00:18:09;53.37;;;31.97;;
67751;SDS011;54551;51.068;5.826;2022-12-18T00:20:39;63.33;;;36.30;;
67751;SDS011;54551;51.068;5.826;2022-12-18T00:23:05;57.57;;;34.37;;
67751;SDS011;54551;51.068;5.826;2022-12-18T00:25:34;62.30;;;34.60;;
67751;SDS011;54551;51.068;5.826;2022-12-18T00:28:04;58.13;;;33.27;;
67751;SDS011;54551;51.068;5.826;2022-12-18T00:30:30;48.17;;;29.23;;
67751;SDS011;54551;51.068;5.826;2022-12-18T00:32:56;47.30;;;29.00;;
67751;SDS011;54551;51.068;5.826;2022-12-18T00:35:24;46.33;;;27.97;;
67751;SDS011;54551;51.068;5.826;2022-12-18T00:37:51;44.53;;;27.60;;
67751;SDS011;54551;51.068;5.826;2022-12-18T00:40:17;45.03;;;27.37;;
67751;SDS011;54551;51.068;5.826;2022-12-18T00:42:43;45.97;;;27.30;;
67751;SDS011;54551;51.068;5.826;2022-12-18T00:45:21;41.83;;;25.73;;
67751;SDS011;54551;51.068;5.826;2022-12-18T00:47:48;42.17;;;25.83;;
67751;SDS011;54551;51.068;5.826;2022-12-18T00:50:14;37.57;;;23.97;;
67751;SDS011;54551;51.068;5.826;2022-12-18T00:52:40;37.03;;;24.10;;
67751;SDS011;54551;51.068;5.826;2022-12-18T00:55:06;36.33;;;21.53;;
67751;SDS011;54551;51.068;5.826;2022-12-18T00:57:33;36.23;;;22.47;;
67751;SDS011;54551;51.068;5.826;2022-12-18T00:59:59;33.43;;;20.43;;
67751;SDS011;54551;51.068;5.826;2022-12-18T01:02:24;38.63;;;24.20;;
67751;SDS011;54551;51.068;5.826;2022-12-18T01:04:55;35.20;;;23.03;;
67751;SDS011;54551;51.068;5.826;2022-12-18T01:07:21;37.37;;;22.60;;
67751;SDS011;54551;51.068;5.826;2022-12-18T01:09:47;34.70;;;21.00;;
67751;SDS011;54551;51.068;5.826;2022-12-18T01:12:13;35.77;;;22.77;;
67751;SDS011;54551;51.068;5.826;2022-12-18T01:14:39;33.63;;;24.33;;
67751;SDS011;54551;51.068;5.826;2022-12-18T01:17:04;34.50;;;23.10;;
67751;SDS011;54551;51.068;5.826;2022-12-18T01:19:32;31.27;;;21.07;;
67751;SDS011;54551;51.068;5.826;2022-12-18T01:21:59;35.97;;;22.87;;
67751;SDS011;54551;51.068;5.826;2022-12-18T01:24:25;34.50;;;22.40;;
67751;SDS011;54551;51.068;5.826;2022-12-18T01:26:51;33.07;;;21.67;;
67751;SDS011;54551;51.068;5.826;2022-12-18T01:29:16;34.43;;;20.70;;
67751;SDS011;54551;51.068;5.826;2022-12-18T01:31:42;35.07;;;21.30;;
67751;SDS011;54551;51.068;5.826;2022-12-18T01:34:08;34.60;;;21.10;;
67751;SDS011;54551;51.068;5.826;2022-12-18T01:36:35;32.17;;;20.93;;
67751;SDS011;54551;51.068;5.826;2022-12-18T01:39:10;32.30;;;20.87;;
67751;SDS011;54551;51.068;5.826;2022-12-18T01:41:40;32.63;;;20.03;;
67751;SDS011;54551;51.068;5.826;2022-12-18T01:47:15;29.47;;;20.00;;
67751;SDS011;54551;51.068;5.826;2022-12-18T01:52:53;29.97;;;19.73;;
67751;SDS011;54551;51.068;5.826;2022-12-18T01:55:21;34.33;;;20.33;;
67751;SDS011;54551;51.068;5.826;2022-12-18T01:57:52;31.47;;;21.03;;
67751;SDS011;54551;51.068;5.826;2022-12-18T02:00:21;35.70;;;21.17;;
67751;SDS011;54551;51.068;5.826;2022-12-18T02:02:50;36.07;;;22.07;;
67751;SDS011;54551;51.068;5.826;2022-12-18T02:05:19;32.17;;;20.57;;
67751;SDS011;54551;51.068;5.826;2022-12-18T02:08:29;31.87;;;20.50;;
67751;SDS011;54551;51.068;5.826;2022-12-18T02:11:12;35.40;;;19.13;;
67751;SDS011;54551;51.068;5.826;2022-12-18T02:14:00;33.23;;;20.07;;
67751;SDS011;54551;51.068;5.826;2022-12-18T02:19:39;29.80;;;19.70;;
67751;SDS011;54551;51.068;5.826;2022-12-18T02:25:20;29.90;;;19.63;;
67751;SDS011;54551;51.068;5.826;2022-12-18T02:27:54;31.53;;;19.90;;
67751;SDS011;54551;51.068;5.826;2022-12-18T02:30:26;30.20;;;18.97;;
67751;SDS011;54551;51.068;5.826;2022-12-18T02:32:55;29.93;;;19.23;;
67751;SDS011;54551;51.068;5.826;2022-12-18T02:35:23;29.57;;;18.23;;
67751;SDS011;54551;51.068;5.826;2022-12-18T02:37:54;30.17;;;19.10;;
67751;SDS011;54551;51.068;5.826;2022-12-18T02:40:23;31.10;;;19.33;;
67751;SDS011;54551;51.068;5.826;2022-12-18T02:42:51;33.63;;;19.57;;
67751;SDS011;54551;51.068;5.826;2022-12-18T02:45:18;29.73;;;19.33;;
67751;SDS011;54551;51.068;5.826;2022-12-18T02:47:46;26.90;;;17.17;;
67751;SDS011;54551;51.068;5.826;2022-12-18T02:53:03;25.63;;;16.63;;
67751;SDS011;54551;51.068;5.826;2022-12-18T02:58:58;30.07;;;17.70;;
67751;SDS011;54551;51.068;5.826;2022-12-18T03:04:29;27.87;;;16.83;;
67751;SDS011;54551;51.068;5.826;2022-12-18T03:07:05;28.63;;;15.97;;
67751;SDS011;54551;51.068;5.826;2022-12-18T03:09:38;26.53;;;17.03;;
67751;SDS011;54551;51.068;5.826;2022-12-18T03:12:18;22.70;;;15.40;;
67751;SDS011;54551;51.068;5.826;2022-12-18T03:14:50;27.27;;;16.23;;
67751;SDS011;54551;51.068;5.826;2022-12-18T03:17:26;26.87;;;15.03;;
67751;SDS011;54551;51.068;5.826;2022-12-18T03:19:55;23.63;;;16.23;;
67751;SDS011;54551;51.068;5.826;2022-12-18T03:22:24;23.03;;;15.57;;
67751;SDS011;54551;51.068;5.826;2022-12-18T03:24:53;22.90;;;15.73;;
67751;SDS011;54551;51.068;5.826;2022-12-18T03:27:21;23.90;;;15.37;;
67751;SDS011;54551;51.068;5.826;2022-12-18T03:29:52;25.87;;;16.07;;
67751;SDS011;54551;51.068;5.826;2022-12-18T03:32:47;24.20;;;15.40;;
67751;SDS011;54551;51.068;5.826;2022-12-18T03:35:22;28.77;;;17.47;;
67751;SDS011;54551;51.068;5.826;2022-12-18T03:37:58;27.20;;;16.53;;
67751;SDS011;54551;51.068;5.826;2022-12-18T03:40:50;22.43;;;15.70;;
67751;SDS011;54551;51.068;5.826;2022-12-18T03:43:20;26.03;;;16.97;;
67751;SDS011;54551;51.068;5.826;2022-12-18T03:46:47;25.10;;;16.27;;
67751;SDS011;54551;51.068;5.826;2022-12-18T03:48:51;27.67;;;16.97;;
67751;SDS011;54551;51.068;5.826;2022-12-18T03:51:26;24.60;;;16.03;;
67751;SDS011;54551;51.068;5.826;2022-12-18T03:54:00;25.50;;;16.40;;
67751;SDS011;54551;51.068;5.826;2022-12-18T03:56:33;27.87;;;16.90;;
67751;SDS011;54551;51.068;5.826;2022-12-18T03:59:08;26.53;;;17.37;;
67751;SDS011;54551;51.068;5.826;2022-12-18T04:01:39;27.23;;;17.50;;
67751;SDS011;54551;51.068;5.826;2022-12-18T04:04:10;25.63;;;16.73;;
67751;SDS011;54551;51.068;5.826;2022-12-18T04:06:40;26.87;;;16.70;;
67751;SDS011;54551;51.068;5.826;2022-12-18T04:09:09;28.97;;;17.03;;
67751;SDS011;54551;51.068;5.826;2022-12-18T04:11:39;28.13;;;16.20;;
67751;SDS011;54551;51.068;5.826;2022-12-18T04:14:06;27.40;;;17.83;;
67751;SDS011;54551;51.068;5.826;2022-12-18T04:16:33;25.60;;;17.00;;
67751;SDS011;54551;51.068;5.826;2022-12-18T04:19:02;28.37;;;17.17;;
67751;SDS011;54551;51.068;5.826;2022-12-18T04:21:32;23.63;;;15.87;;
67751;SDS011;54551;51.068;5.826;2022-12-18T04:23:59;22.43;;;14.60;;
67751;SDS011;54551;51.068;5.826;2022-12-18T04:26:26;22.83;;;15.43;;
67751;SDS011;54551;51.068;5.826;2022-12-18T04:29:04;21.90;;;14.37;;
67751;SDS011;54551;51.068;5.826;2022-12-18T04:31:30;25.80;;;14.13;;
67751;SDS011;54551;51.068;5.826;2022-12-18T04:34:00;24.90;;;15.17;;
67751;SDS011;54551;51.068;5.826;2022-12-18T04:36:27;20.70;;;13.77;;
67751;SDS011;54551;51.068;5.826;2022-12-18T04:38:53;23.83;;;15.47;;
67751;SDS011;54551;51.068;5.826;2022-12-18T04:41:20;21.33;;;15.03;;
67751;SDS011;54551;51.068;5.826;2022-12-18T04:43:47;23.83;;;15.07;;
67751;SDS011;54551;51.068;5.826;2022-12-18T04:46:13;22.40;;;14.90;;
67751;SDS011;54551;51.068;5.826;2022-12-18T04:48:39;24.40;;;16.37;;
67751;SDS011;54551;51.068;5.826;2022-12-18T04:51:06;26.93;;;16.47;;
67751;SDS011;54551;51.068;5.826;2022-12-18T04:53:32;23.77;;;15.13;;
67751;SDS011;54551;51.068;5.826;2022-12-18T04:58:35;23.60;;;16.40;;
67751;SDS011;54551;51.068;5.826;2022-12-18T05:01:01;23.60;;;15.40;;
67751;SDS011;54551;51.068;5.826;2022-12-18T05:03:28;23.37;;;15.40;;
67751;SDS011;54551;51.068;5.826;2022-12-18T05:05:54;27.13;;;16.13;;
67751;SDS011;54551;51.068;5.826;2022-12-18T05:08:20;24.37;;;16.40;;
67751;SDS011;54551;51.068;5.826;2022-12-18T05:10:46;26.50;;;16.60;;
67751;SDS011;54551;51.068;5.826;2022-12-18T05:13:12;23.13;;;16.03;;
67751;SDS011;54551;51.068;5.826;2022-12-18T05:15:38;24.73;;;16.10;;
67751;SDS011;54551;51.068;5.826;2022-12-18T05:18:04;27.27;;;16.73;;
67751;SDS011;54551;51.068;5.826;2022-12-18T05:20:30;24.83;;;16.60;;
67751;SDS011;54551;51.068;5.826;2022-12-18T05:22:56;23.67;;;16.70;;
67751;SDS011;54551;51.068;5.826;2022-12-18T05:25:23;23.90;;;15.80;;
67751;SDS011;54551;51.068;5.826;2022-12-18T05:27:49;23.57;;;15.73;;
67751;SDS011;54551;51.068;5.826;2022-12-18T05:30:15;22.87;;;15.70;;
67751;SDS011;54551;51.068;5.826;2022-12-18T05:32:42;27.67;;;15.97;;
67751;SDS011;54551;51.068;5.826;2022-12-18T05:35:08;25.50;;;16.13;;
67751;SDS011;54551;51.068;5.826;2022-12-18T05:37:36;25.50;;;17.93;;
67751;SDS011;54551;51.068;5.826;2022-12-18T05:40:03;23.03;;;15.80;;
67751;SDS011;54551;51.068;5.826;2022-12-18T05:42:29;30.90;;;17.70;;
67751;SDS011;54551;51.068;5.826;2022-12-18T05:44:56;24.83;;;16.33;;
67751;SDS011;54551;51.068;5.826;2022-12-18T05:47:21;24.70;;;15.80;;
67751;SDS011;54551;51.068;5.826;2022-12-18T05:49:47;26.30;;;17.10;;
67751;SDS011;54551;51.068;5.826;2022-12-18T05:52:13;26.17;;;16.87;;
67751;SDS011;54551;51.068;5.826;2022-12-18T05:54:39;23.97;;;15.73;;
67751;SDS011;54551;51.068;5.826;2022-12-18T05:57:05;26.23;;;17.40;;
67751;SDS011;54551;51.068;5.826;2022-12-18T05:59:31;26.47;;;17.80;;
67751;SDS011;54551;51.068;5.826;2022-12-18T06:01:57;26.90;;;16.90;;
67751;SDS011;54551;51.068;5.826;2022-12-18T06:04:22;28.30;;;18.23;;
67751;SDS011;54551;51.068;5.826;2022-12-18T06:06:48;25.47;;;16.70;;
67751;SDS011;54551;51.068;5.826;2022-12-18T06:09:14;24.13;;;16.33;;
67751;SDS011;54551;51.068;5.826;2022-12-18T06:11:40;24.10;;;16.87;;
67751;SDS011;54551;51.068;5.826;2022-12-18T06:14:09;25.83;;;17.27;;
67751;SDS011;54551;51.068;5.826;2022-12-18T06:16:35;24.03;;;16.53;;
67751;SDS011;54551;51.068;5.826;2022-12-18T06:19:02;25.40;;;17.50;;
67751;SDS011;54551;51.068;5.826;2022-12-18T06:21:29;24.43;;;16.03;;
67751;SDS011;54551;51.068;5.826;2022-12-18T06:23:56;23.23;;;17.23;;
67751;SDS011;54551;51.068;5.826;2022-12-18T06:26:22;24.27;;;16.13;;
67751;SDS011;54551;51.068;5.826;2022-12-18T06:28:48;27.30;;;17.60;;
67751;SDS011;54551;51.068;5.826;2022-12-18T06:31:14;26.53;;;17.43;;
67751;SDS011;54551;51.068;5.826;2022-12-18T06:33:40;24.50;;;17.03;;
67751;SDS011;54551;51.068;5.826;2022-12-18T06:36:07;25.07;;;16.73;;
67751;SDS011;54551;51.068;5.826;2022-12-18T06:38:36;26.47;;;18.40;;
67751;SDS011;54551;51.068;5.826;2022-12-18T06:41:07;25.77;;;17.47;;
67751;SDS011;54551;51.068;5.826;2022-12-18T06:43:36;26.40;;;17.73;;
67751;SDS011;54551;51.068;5.826;2022-12-18T06:46:03;28.50;;;18.00;;
67751;SDS011;54551;51.068;5.826;2022-12-18T06:48:29;27.43;;;18.60;;
67751;SDS011;54551;51.068;5.826;2022-12-18T06:50:55;27.17;;;17.63;;
67751;SDS011;54551;51.068;5.826;2022-12-18T06:53:21;30.00;;;18.40;;
67751;SDS011;54551;51.068;5.826;2022-12-18T06:55:47;31.47;;;19.30;;
67751;SDS011;54551;51.068;5.826;2022-12-18T06:58:14;26.93;;;18.60;;
67751;SDS011;54551;51.068;5.826;2022-12-18T07:00:40;34.03;;;18.60;;
67751;SDS011;54551;51.068;5.826;2022-12-18T07:03:05;31.60;;;18.80;;
67751;SDS011;54551;51.068;5.826;2022-12-18T07:05:31;25.43;;;16.83;;
67751;SDS011;54551;51.068;5.826;2022-12-18T07:07:58;28.23;;;19.17;;
67751;SDS011;54551;51.068;5.826;2022-12-18T07:10:27;31.13;;;19.37;;
67751;SDS011;54551;51.068;5.826;2022-12-18T07:12:52;29.13;;;18.87;;
67751;SDS011;54551;51.068;5.826;2022-12-18T07:15:19;27.43;;;18.87;;
67751;SDS011;54551;51.068;5.826;2022-12-18T07:17:45;27.07;;;18.53;;
67751;SDS011;54551;51.068;5.826;2022-12-18T07:20:11;26.67;;;19.00;;
67751;SDS011;54551;51.068;5.826;2022-12-18T07:22:37;30.93;;;20.20;;
67751;SDS011;54551;51.068;5.826;2022-12-18T07:25:05;30.90;;;20.47;;
67751;SDS011;54551;51.068;5.826;2022-12-18T07:27:32;27.67;;;18.53;;
67751;SDS011;54551;51.068;5.826;2022-12-18T07:29:58;28.83;;;18.37;;
67751;SDS011;54551;51.068;5.826;2022-12-18T07:32:23;30.97;;;19.47;;
67751;SDS011;54551;51.068;5.826;2022-12-18T07:34:49;28.07;;;19.10;;
67751;SDS011;54551;51.068;5.826;2022-12-18T07:37:15;27.33;;;19.33;;
67751;SDS011;54551;51.068;5.826;2022-12-18T07:39:43;27.57;;;19.70;;
67751;SDS011;54551;51.068;5.826;2022-12-18T07:42:12;30.50;;;18.93;;
67751;SDS011;54551;51.068;5.826;2022-12-18T07:44:56;31.97;;;20.10;;
67751;SDS011;54551;51.068;5.826;2022-12-18T07:47:23;29.53;;;19.03;;
67751;SDS011;54551;51.068;5.826;2022-12-18T07:49:49;34.00;;;20.73;;
67751;SDS011;54551;51.068;5.826;2022-12-18T07:52:15;27.03;;;18.83;;
67751;SDS011;54551;51.068;5.826;2022-12-18T07:54:41;29.47;;;19.90;;
67751;SDS011;54551;51.068;5.826;2022-12-18T07:57:07;27.80;;;19.63;;
67751;SDS011;54551;51.068;5.826;2022-12-18T07:59:34;28.63;;;18.87;;
67751;SDS011;54551;51.068;5.826;2022-12-18T08:02:00;26.87;;;18.23;;
67751;SDS011;54551;51.068;5.826;2022-12-18T08:04:26;26.03;;;17.87;;
67751;SDS011;54551;51.068;5.826;2022-12-18T08:06:52;30.10;;;18.87;;
67751;SDS011;54551;51.068;5.826;2022-12-18T08:09:18;28.43;;;18.50;;
67751;SDS011;54551;51.068;5.826;2022-12-18T08:11:44;25.23;;;18.47;;
67751;SDS011;54551;51.068;5.826;2022-12-18T08:14:10;28.77;;;18.00;;
67751;SDS011;54551;51.068;5.826;2022-12-18T08:16:36;26.27;;;17.80;;
67751;SDS011;54551;51.068;5.826;2022-12-18T08:19:02;26.13;;;17.30;;
67751;SDS011;54551;51.068;5.826;2022-12-18T08:21:29;29.40;;;17.93;;
67751;SDS011;54551;51.068;5.826;2022-12-18T08:23:59;27.07;;;17.87;;
67751;SDS011;54551;51.068;5.826;2022-12-18T08:26:27;27.97;;;18.87;;
67751;SDS011;54551;51.068;5.826;2022-12-18T08:28:56;26.03;;;17.63;;
67751;SDS011;54551;51.068;5.826;2022-12-18T08:31:23;26.57;;;17.73;;
67751;SDS011;54551;51.068;5.826;2022-12-18T08:33:53;24.37;;;17.10;;
67751;SDS011;54551;51.068;5.826;2022-12-18T08:36:20;26.63;;;17.63;;
67751;SDS011;54551;51.068;5.826;2022-12-18T08:38:46;24.63;;;17.03;;
67751;SDS011;54551;51.068;5.826;2022-12-18T08:41:20;23.90;;;16.93;;
67751;SDS011;54551;51.068;5.826;2022-12-18T08:43:46;26.03;;;17.07;;
67751;SDS011;54551;51.068;5.826;2022-12-18T08:46:35;21.23;;;15.00;;
67751;SDS011;54551;51.068;5.826;2022-12-18T08:49:05;24.47;;;15.97;;
67751;SDS011;54551;51.068;5.826;2022-12-18T08:51:32;23.67;;;14.70;;
67751;SDS011;54551;51.068;5.826;2022-12-18T08:53:58;21.17;;;14.87;;
67751;SDS011;54551;51.068;5.826;2022-12-18T08:56:24;22.60;;;15.67;;
67751;SDS011;54551;51.068;5.826;2022-12-18T08:58:53;22.70;;;15.57;;
67751;SDS011;54551;51.068;5.826;2022-12-18T09:01:20;20.47;;;14.80;;
67751;SDS011;54551;51.068;5.826;2022-12-18T09:03:46;24.30;;;15.73;;
67751;SDS011;54551;51.068;5.826;2022-12-18T09:06:15;24.37;;;15.90;;
67751;SDS011;54551;51.068;5.826;2022-12-18T09:08:45;19.20;;;14.93;;
67751;SDS011;54551;51.068;5.826;2022-12-18T09:11:19;26.23;;;16.27;;
67751;SDS011;54551;51.068;5.826;2022-12-18T09:13:47;20.50;;;14.63;;
67751;SDS011;54551;51.068;5.826;2022-12-18T09:16:14;23.60;;;16.23;;
67751;SDS011;54551;51.068;5.826;2022-12-18T09:18:41;21.60;;;15.20;;
67751;SDS011;54551;51.068;5.826;2022-12-18T09:21:11;23.30;;;16.17;;
67751;SDS011;54551;51.068;5.826;2022-12-18T09:23:41;22.03;;;14.87;;
67751;SDS011;54551;51.068;5.826;2022-12-18T09:26:07;21.20;;;15.50;;
67751;SDS011;54551;51.068;5.826;2022-12-18T09:28:33;25.00;;;15.10;;
67751;SDS011;54551;51.068;5.826;2022-12-18T09:31:02;20.37;;;14.97;;
67751;SDS011;54551;51.068;5.826;2022-12-18T09:33:29;21.70;;;15.10;;
67751;SDS011;54551;51.068;5.826;2022-12-18T09:35:55;24.60;;;16.47;;
67751;SDS011;54551;51.068;5.826;2022-12-18T09:38:21;25.10;;;16.13;;
67751;SDS011;54551;51.068;5.826;2022-12-18T09:40:51;22.37;;;16.30;;
67751;SDS011;54551;51.068;5.826;2022-12-18T09:43:24;21.87;;;15.33;;
67751;SDS011;54551;51.068;5.826;2022-12-18T09:45:55;25.13;;;15.80;;
67751;SDS011;54551;51.068;5.826;2022-12-18T09:48:26;22.50;;;15.30;;
67751;SDS011;54551;51.068;5.826;2022-12-18T09:50:59;21.80;;;15.30;;
67751;SDS011;54551;51.068;5.826;2022-12-18T09:53:31;20.23;;;14.90;;
67751;SDS011;54551;51.068;5.826;2022-12-18T09:56:03;23.67;;;16.13;;
67751;SDS011;54551;51.068;5.826;2022-12-18T09:58:31;20.50;;;14.90;;
67751;SDS011;54551;51.068;5.826;2022-12-18T10:00:57;21.00;;;14.37;;
67751;SDS011;54551;51.068;5.826;2022-12-18T10:03:23;19.70;;;15.47;;
67751;SDS011;54551;51.068;5.826;2022-12-18T10:17:31;21.90;;;14.93;;
67751;SDS011;54551;51.068;5.826;2022-12-18T10:20:10;23.83;;;15.47;;
67751;SDS011;54551;51.068;5.826;2022-12-18T10:25:20;23.17;;;14.73;;
67751;SDS011;54551;51.068;5.826;2022-12-18T10:28:36;23.80;;;15.13;;
67751;SDS011;54551;51.068;5.826;2022-12-18T10:30:58;20.43;;;14.47;;
67751;SDS011;54551;51.068;5.826;2022-12-18T10:33:24;21.67;;;15.43;;
67751;SDS011;54551;51.068;5.826;2022-12-18T10:35:53;19.97;;;14.63;;
67751;SDS011;54551;51.068;5.826;2022-12-18T10:38:24;24.40;;;16.13;;
67751;SDS011;54551;51.068;5.826;2022-12-18T10:48:40;21.53;;;15.27;;
67751;SDS011;54551;51.068;5.826;2022-12-18T10:51:20;22.27;;;14.80;;
67751;SDS011;54551;51.068;5.826;2022-12-18T10:53:56;21.43;;;15.50;;
67751;SDS011;54551;51.068;5.826;2022-12-18T10:56:25;25.13;;;16.43;;
67751;SDS011;54551;51.068;5.826;2022-12-18T10:58:57;22.10;;;15.73;;
67751;SDS011;54551;51.068;5.826;2022-12-18T11:01:45;25.30;;;15.80;;
67751;SDS011;54551;51.068;5.826;2022-12-18T11:04:27;23.80;;;15.63;;
67751;SDS011;54551;51.068;5.826;2022-12-18T11:06:56;22.60;;;15.77;;
67751;SDS011;54551;51.068;5.826;2022-12-18T11:09:26;23.50;;;16.67;;
67751;SDS011;54551;51.068;5.826;2022-12-18T11:11:55;24.27;;;16.17;;
67751;SDS011;54551;51.068;5.826;2022-12-18T11:14:34;22.40;;;14.80;;
67751;SDS011;54551;51.068;5.826;2022-12-18T11:20:07;24.93;;;16.50;;
67751;SDS011;54551;51.068;5.826;2022-12-18T11:22:57;22.67;;;16.40;;
67751;SDS011;54551;51.068;5.826;2022-12-18T11:25:24;24.23;;;16.40;;
67751;SDS011;54551;51.068;5.826;2022-12-18T11:27:55;23.33;;;15.40;;
67751;SDS011;54551;51.068;5.826;2022-12-18T11:30:25;21.97;;;15.17;;
67751;SDS011;54551;51.068;5.826;2022-12-18T11:32:56;22.90;;;16.43;;
67751;SDS011;54551;51.068;5.826;2022-12-18T11:40:54;24.93;;;16.53;;
67751;SDS011;54551;51.068;5.826;2022-12-18T11:46:01;22.00;;;15.40;;
67751;SDS011;54551;51.068;5.826;2022-12-18T11:48:32;23.33;;;16.33;;
67751;SDS011;54551;51.068;5.826;2022-12-18T11:51:04;24.83;;;16.20;;
67751;SDS011;54551;51.068;5.826;2022-12-18T11:53:36;22.30;;;15.97;;
67751;SDS011;54551;51.068;5.826;2022-12-18T11:58:51;24.70;;;15.07;;
67751;SDS011;54551;51.068;5.826;2022-12-18T12:09:48;24.07;;;16.00;;
67751;SDS011;54551;51.068;5.826;2022-12-18T12:18:08;25.27;;;16.70;;
67751;SDS011;54551;51.068;5.826;2022-12-18T12:23:36;27.47;;;17.37;;
67751;SDS011;54551;51.068;5.826;2022-12-18T12:26:10;23.23;;;16.60;;
67751;SDS011;54551;51.068;5.826;2022-12-18T12:40:13;24.60;;;17.37;;
67751;SDS011;54551;51.068;5.826;2022-12-18T12:42:46;27.10;;;17.47;;
67751;SDS011;54551;51.068;5.826;2022-12-18T12:53:47;25.87;;;17.03;;
67751;SDS011;54551;51.068;5.826;2022-12-18T12:56:14;26.23;;;15.90;;
67751;SDS011;54551;51.068;5.826;2022-12-18T12:58:52;25.20;;;17.20;;
67751;SDS011;54551;51.068;5.826;2022-12-18T13:04:41;22.40;;;15.73;;
67751;SDS011;54551;51.068;5.826;2022-12-18T13:07:15;22.13;;;16.07;;
67751;SDS011;54551;51.068;5.826;2022-12-18T13:15:30;25.70;;;17.40;;
67751;SDS011;54551;51.068;5.826;2022-12-18T13:18:04;25.50;;;15.70;;
67751;SDS011;54551;51.068;5.826;2022-12-18T13:20:37;23.03;;;16.00;;
67751;SDS011;54551;51.068;5.826;2022-12-18T13:34:24;21.83;;;15.13;;
67751;SDS011;54551;51.068;5.826;2022-12-18T13:36:52;21.10;;;15.63;;
67751;SDS011;54551;51.068;5.826;2022-12-18T13:39:24;21.93;;;15.93;;
67751;SDS011;54551;51.068;5.826;2022-12-18T13:47:03;24.20;;;16.03;;
67751;SDS011;54551;51.068;5.826;2022-12-18T13:52:18;23.63;;;15.73;;
67751;SDS011;54551;51.068;5.826;2022-12-18T13:55:13;22.77;;;16.43;;
67751;SDS011;54551;51.068;5.826;2022-12-18T13:57:43;24.83;;;16.63;;
67751;SDS011;54551;51.068;5.826;2022-12-18T14:02:46;22.37;;;15.50;;
67751;SDS011;54551;51.068;5.826;2022-12-18T14:05:26;23.27;;;15.67;;
67751;SDS011;54551;51.068;5.826;2022-12-18T14:07:53;22.30;;;15.23;;
67751;SDS011;54551;51.068;5.826;2022-12-18T14:10:19;22.80;;;16.93;;
67751;SDS011;54551;51.068;5.826;2022-12-18T14:12:48;22.67;;;15.27;;
67751;SDS011;54551;51.068;5.826;2022-12-18T14:20:45;21.67;;;15.67;;
67751;SDS011;54551;51.068;5.826;2022-12-18T14:25:54;24.07;;;17.57;;
67751;SDS011;54551;51.068;5.826;2022-12-18T14:28:19;25.27;;;17.00;;
67751;SDS011;54551;51.068;5.826;2022-12-18T14:30:47;21.97;;;16.93;;
67751;SDS011;54551;51.068;5.826;2022-12-18T14:33:15;22.40;;;16.67;;
67751;SDS011;54551;51.068;5.826;2022-12-18T14:35:55;24.83;;;16.47;;
67751;SDS011;54551;51.068;5.826;2022-12-18T14:38:39;24.03;;;17.03;;
67751;SDS011;54551;51.068;5.826;2022-12-18T14:41:06;22.80;;;16.57;;
67751;SDS011;54551;51.068;5.826;2022-12-18T14:43:37;22.87;;;16.07;;
67751;SDS011;54551;51.068;5.826;2022-12-18T14:46:25;24.70;;;18.23;;
67751;SDS011;54551;51.068;5.826;2022-12-18T14:51:57;23.53;;;17.50;;
67751;SDS011;54551;51.068;5.826;2022-12-18T14:54:25;26.77;;;17.07;;
67751;SDS011;54551;51.068;5.826;2022-12-18T14:56:56;26.40;;;17.77;;
67751;SDS011;54551;51.068;5.826;2022-12-18T14:59:26;24.93;;;18.27;;
67751;SDS011;54551;51.068;5.826;2022-12-18T15:02:01;25.77;;;17.73;;
67751;SDS011;54551;51.068;5.826;2022-12-18T15:04:39;24.37;;;17.37;;
67751;SDS011;54551;51.068;5.826;2022-12-18T15:07:13;26.07;;;17.97;;
67751;SDS011;54551;51.068;5.826;2022-12-18T15:10:08;24.03;;;16.83;;
67751;SDS011;54551;51.068;5.826;2022-12-18T15:17:59;25.23;;;18.63;;
67751;SDS011;54551;51.068;5.826;2022-12-18T15:20:25;27.13;;;18.53;;
67751;SDS011;54551;51.068;5.826;2022-12-18T15:22:51;25.10;;;18.30;;
67751;SDS011;54551;51.068;5.826;2022-12-18T15:25:27;25.67;;;18.70;;
67751;SDS011;54551;51.068;5.826;2022-12-18T15:27:59;29.27;;;18.43;;
67751;SDS011;54551;51.068;5.826;2022-12-18T15:30:25;25.90;;;17.93;;
67751;SDS011;54551;51.068;5.826;2022-12-18T15:32:51;27.27;;;17.97;;
67751;SDS011;54551;51.068;5.826;2022-12-18T15:35:37;25.13;;;18.33;;
67751;SDS011;54551;51.068;5.826;2022-12-18T15:38:03;24.87;;;18.80;;
67751;SDS011;54551;51.068;5.826;2022-12-18T15:40:29;25.20;;;18.77;;
67751;SDS011;54551;51.068;5.826;2022-12-18T15:42:55;24.67;;;19.00;;
67751;SDS011;54551;51.068;5.826;2022-12-18T15:45:39;24.87;;;17.53;;
67751;SDS011;54551;51.068;5.826;2022-12-18T15:48:18;26.57;;;18.67;;
67751;SDS011;54551;51.068;5.826;2022-12-18T15:50:47;27.23;;;19.63;;
67751;SDS011;54551;51.068;5.826;2022-12-18T15:53:13;27.47;;;19.57;;
67751;SDS011;54551;51.068;5.826;2022-12-18T15:55:41;27.57;;;19.73;;
67751;SDS011;54551;51.068;5.826;2022-12-18T15:58:26;29.33;;;20.17;;
67751;SDS011;54551;51.068;5.826;2022-12-18T16:00:51;27.00;;;18.77;;
67751;SDS011;54551;51.068;5.826;2022-12-18T16:03:18;25.33;;;18.83;;
67751;SDS011;54551;51.068;5.826;2022-12-18T16:05:44;26.13;;;19.13;;
67751;SDS011;54551;51.068;5.826;2022-12-18T16:08:10;27.27;;;18.80;;
67751;SDS011;54551;51.068;5.826;2022-12-18T16:10:36;25.77;;;19.27;;
67751;SDS011;54551;51.068;5.826;2022-12-18T16:13:02;31.10;;;21.37;;
67751;SDS011;54551;51.068;5.826;2022-12-18T16:15:27;29.50;;;21.13;;
67751;SDS011;54551;51.068;5.826;2022-12-18T16:17:53;30.23;;;20.43;;
67751;SDS011;54551;51.068;5.826;2022-12-18T16:20:20;28.03;;;19.37;;
67751;SDS011;54551;51.068;5.826;2022-12-18T16:22:47;31.20;;;21.17;;
67751;SDS011;54551;51.068;5.826;2022-12-18T16:25:19;27.70;;;20.03;;
67751;SDS011;54551;51.068;5.826;2022-12-18T16:27:52;29.60;;;20.67;;
67751;SDS011;54551;51.068;5.826;2022-12-18T16:30:25;29.73;;;21.50;;
67751;SDS011;54551;51.068;5.826;2022-12-18T16:32:56;27.97;;;20.27;;
67751;SDS011;54551;51.068;5.826;2022-12-18T16:35:22;28.97;;;19.73;;
67751;SDS011;54551;51.068;5.826;2022-12-18T16:37:49;30.03;;;20.03;;
67751;SDS011;54551;51.068;5.826;2022-12-18T16:40:15;29.40;;;20.43;;
67751;SDS011;54551;51.068;5.826;2022-12-18T16:42:43;25.53;;;19.20;;
67751;SDS011;54551;51.068;5.826;2022-12-18T16:45:11;33.23;;;20.80;;
67751;SDS011;54551;51.068;5.826;2022-12-18T16:47:38;31.93;;;20.70;;
67751;SDS011;54551;51.068;5.826;2022-12-18T16:50:05;28.20;;;20.10;;
67751;SDS011;54551;51.068;5.826;2022-12-18T16:52:32;30.33;;;21.67;;
67751;SDS011;54551;51.068;5.826;2022-12-18T16:54:59;29.33;;;21.03;;
67751;SDS011;54551;51.068;5.826;2022-12-18T16:57:25;29.23;;;20.93;;
67751;SDS011;54551;51.068;5.826;2022-12-18T16:59:51;28.53;;;20.97;;